Time;durP1;ratioP1;P1;durP2;ratioP2;P2;SDS_P1;SDS_P2;PMS_P1;PMS_P2;Temp;Humidity;BMP_temperature;BMP_pressure;BME280_temperature;BME280_humidity;BME280_pressure;Samples;Min_cycle;Max_cycle;Signal;HPM_P1;HPM_P2
2024/04/03 00:00:23;;;;;;;1.95;1.00;;;;;;;4.83;100.00;95633.59;1023427;28;20138;-69
2024/04/03 00:00:54;;;;;;;4.72;1.00;;;;;;;4.81;100.00;95627.03;1031378;28;20641;-69
2024/04/03 00:01:25;;;;;;;1.08;0.70;;;;;;;4.73;100.00;95620.38;1027484;28;20023;-69
2024/04/03 00:01:55;;;;;;;1.70;0.70;;;;;;;4.73;100.00;95626.38;1027401;28;20500;-69
2024/04/03 00:02:26;;;;;;;1.45;0.88;;;;;;;4.75;100.00;95630.53;1027477;28;20027;-69
2024/04/03 00:02:57;;;;;;;2.90;0.90;;;;;;;4.71;100.00;95628.41;1031700;28;20034;-70
2024/04/03 00:03:28;;;;;;;1.13;0.80;;;;;;;4.69;100.00;95625.25;1023584;28;20110;-69
2024/04/03 00:03:58;;;;;;;0.80;0.60;;;;;;;4.68;100.00;95628.06;1023515;28;20668;-69
2024/04/03 00:04:29;;;;;;;2.95;0.82;;;;;;;4.68;100.00;95633.25;1027356;28;20058;-69
2024/04/03 00:04:59;;;;;;;3.10;0.95;;;;;;;4.66;100.00;95627.50;1027953;28;20109;-70
2024/04/03 00:05:30;;;;;;;1.98;0.90;;;;;;;4.63;100.00;95630.56;1035255;28;20030;-68
2024/04/03 00:06:00;;;;;;;1.42;0.82;;;;;;;4.60;100.00;95631.03;1035533;28;20026;-69
2024/04/03 00:06:31;;;;;;;1.33;1.00;;;;;;;4.62;100.00;95628.97;1035613;28;20026;-70
2024/04/03 00:07:01;;;;;;;1.65;0.80;;;;;;;4.62;100.00;95628.97;1035506;28;20419;-70
2024/04/03 00:07:32;;;;;;;2.63;1.10;;;;;;;4.62;100.00;95631.56;1035124;28;20025;-69
2024/04/03 00:08:03;;;;;;;2.05;0.88;;;;;;;4.59;100.00;95629.41;1035813;28;20034;-69
2024/04/03 00:08:34;;;;;;;1.35;0.90;;;;;;;4.57;100.00;95627.06;1039478;28;20620;-69
2024/04/03 00:09:04;;;;;;;3.92;1.48;;;;;;;4.56;100.00;95627.28;1035152;28;20268;-69
2024/04/03 00:09:35;;;;;;;3.90;0.75;;;;;;;4.54;100.00;95627.50;1039224;28;20041;-70
2024/04/03 00:10:05;;;;;;;1.38;0.80;;;;;;;4.54;100.00;95632.72;1035498;28;20056;-68
2024/04/03 00:10:36;;;;;;;1.25;0.85;;;;;;;4.46;100.00;95618.25;1039509;28;20033;-69
2024/04/03 00:11:06;;;;;;;2.15;0.98;;;;;;;4.51;100.00;95629.78;1031332;28;20582;-71
2024/04/03 00:11:37;;;;;;;4.65;1.15;;;;;;;4.47;100.00;95632.81;1031050;28;20127;-69
2024/04/03 00:12:07;;;;;;;1.00;0.90;;;;;;;4.47;100.00;95632.03;1031453;28;20081;-69
2024/04/03 00:12:38;;;;;;;2.28;1.13;;;;;;;4.45;100.00;95624.44;1031182;28;20037;-69
2024/04/03 00:13:08;;;;;;;1.80;0.93;;;;;;;4.47;100.00;95629.44;1039690;28;20040;-69
2024/04/03 00:13:39;;;;;;;1.63;0.90;;;;;;;4.45;100.00;95629.66;1035432;28;20065;-69
2024/04/03 00:14:10;;;;;;;1.80;1.20;;;;;;;4.44;100.00;95629.88;1023097;29;20035;-69
2024/04/03 00:14:40;;;;;;;1.67;0.93;;;;;;;4.45;100.00;95627.06;1027110;28;20038;-69
2024/04/03 00:15:11;;;;;;;1.65;0.70;;;;;;;4.42;100.00;95624.13;1027286;28;20018;-69
2024/04/03 00:15:42;;;;;;;3.95;1.20;;;;;;;4.44;100.00;95624.69;1031216;28;20031;-69
2024/04/03 00:16:12;;;;;;;1.15;0.75;;;;;;;4.42;100.00;95630.09;1035559;28;20611;-69
2024/04/03 00:16:43;;;;;;;2.00;0.95;;;;;;;4.42;100.00;95627.50;1027339;28;20480;-68
2024/04/03 00:17:13;;;;;;;2.08;1.08;;;;;;;4.41;100.00;95628.53;1031531;28;20101;-69
2024/04/03 00:17:44;;;;;;;1.38;0.80;;;;;;;4.38;100.00;95623.78;1032495;28;20101;-69
2024/04/03 00:18:14;;;;;;;1.20;0.70;;;;;;;4.39;100.00;95624.56;1031435;28;20030;-69
2024/04/03 00:18:45;;;;;;;1.65;1.00;;;;;;;4.39;100.00;95629.75;1031450;28;20436;-69
2024/04/03 00:19:15;;;;;;;3.40;1.30;;;;;;;4.35;100.00;95626.81;1034700;28;20026;-70
2024/04/03 00:19:46;;;;;;;3.83;0.95;;;;;;;4.35;100.00;95626.03;1035298;28;20049;-70
2024/04/03 00:20:16;;;;;;;1.45;0.93;;;;;;;4.35;100.00;95623.44;1027579;28;20768;-69
2024/04/03 00:20:47;;;;;;;3.30;1.30;;;;;;;4.36;100.00;95627.63;1027117;28;20042;-70
2024/04/03 00:21:17;;;;;;;2.35;1.05;;;;;;;4.37;100.00;95622.22;1027029;28;20051;-69
2024/04/03 00:21:50;;;;;;;2.63;1.20;;;;;;;4.34;100.00;95614.88;1027390;28;20042;-69
2024/04/03 00:22:20;;;;;;;1.52;0.85;;;;;;;4.33;100.00;95628.88;1030917;28;20084;-70
2024/04/03 00:22:51;;;;;;;2.17;1.05;;;;;;;4.34;100.00;95627.06;1027043;28;20345;-69
2024/04/03 00:23:21;;;;;;;4.35;1.33;;;;;;;4.34;100.00;95630.44;1027569;28;20432;-69
2024/04/03 00:23:54;;;;;;;0.95;0.77;;;;;;;4.34;100.00;95622.66;1031316;28;20037;-69
2024/04/03 00:24:24;;;;;;;1.38;0.90;;;;;;;4.33;100.00;95626.28;1033283;28;20050;-69
2024/04/03 00:24:55;;;;;;;0.70;0.70;;;;;;;4.33;100.00;95622.91;1039557;28;20625;-69
2024/04/03 00:25:25;;;;;;;1.67;0.73;;;;;;;4.35;100.00;95624.22;1035437;28;20030;-69
2024/04/03 00:26:00;;;;;;;1.55;1.00;;;;;;;4.28;100.00;95613.16;1035186;28;20041;-70
2024/04/03 00:26:30;;;;;;;3.00;1.17;;;;;;;4.34;100.00;95624.47;1027275;28;20865;-70
2024/04/03 00:27:01;;;;;;;4.03;1.10;;;;;;;4.32;100.00;95622.09;1028601;28;20287;-69
2024/04/03 00:27:31;;;;;;;3.20;0.80;;;;;;;4.33;100.00;95621.09;1031241;28;20132;-70
2024/04/03 00:28:02;;;;;;;1.02;0.80;;;;;;;4.32;100.00;95622.09;1031323;28;20634;-69
2024/04/03 00:28:32;;;;;;;3.28;1.20;;;;;;;4.28;100.00;95617.56;1035411;28;20523;-69
2024/04/03 00:29:03;;;;;;;2.28;1.27;;;;;;;4.22;100.00;95612.25;1026504;28;20061;-69
2024/04/03 00:29:34;;;;;;;2.47;1.17;;;;;;;4.27;100.00;95621.19;1027201;28;20121;-69
2024/04/03 00:30:04;;;;;;;1.60;1.02;;;;;;;4.28;100.00;95622.75;1027131;28;20030;-69
2024/04/03 00:30:36;;;;;;;1.63;1.10;;;;;;;4.27;100.00;95621.19;1027304;28;20101;-69
2024/04/03 00:31:07;;;;;;;2.88;1.02;;;;;;;4.27;100.00;95618.59;1027247;28;20030;-70
2024/04/03 00:31:37;;;;;;;1.63;1.10;;;;;;;4.25;100.00;95624.00;1027799;28;20835;-69
2024/04/03 00:32:08;;;;;;;2.55;0.90;;;;;;;4.25;100.00;95622.19;1039531;28;20037;-70
2024/04/03 00:32:39;;;;;;;3.33;0.70;;;;;;;4.28;100.00;95617.56;1039666;28;20033;-69
2024/04/03 00:33:09;;;;;;;2.55;0.90;;;;;;;4.30;100.00;95623.34;1039050;28;20020;-69
2024/04/03 00:33:40;;;;;;;1.23;0.85;;;;;;;4.25;100.00;95617.00;1039568;28;20040;-70
2024/04/03 00:34:10;;;;;;;1.95;0.90;;;;;;;4.22;100.00;95608.88;1031184;28;20069;-69
2024/04/03 00:34:41;;;;;;;2.80;1.05;;;;;;;4.23;100.00;95626.84;1031146;28;20050;-69
2024/04/03 00:35:11;;;;;;;1.90;0.90;;;;;;;4.22;100.00;95624.44;1031384;28;20041;-69
2024/04/03 00:35:43;;;;;;;1.35;0.90;;;;;;;4.15;100.00;95608.19;1031041;28;20507;-69
2024/04/03 00:36:13;;;;;;;4.47;1.17;;;;;;;4.19;100.00;95619.69;1031126;28;20506;-69
2024/04/03 00:36:44;;;;;;;1.88;1.20;;;;;;;4.21;100.00;95625.47;1031028;28;20270;-69
2024/04/03 00:37:14;;;;;;;0.95;0.82;;;;;;;4.18;100.00;95618.13;1025585;28;20046;-68
2024/04/03 00:37:45;;;;;;;2.15;0.80;;;;;;;4.20;100.00;95610.91;1031334;28;20054;-69
2024/04/03 00:38:15;;;;;;;3.20;1.00;;;;;;;4.19;100.00;95619.69;1027140;28;20508;-70
2024/04/03 00:38:46;;;;;;;1.27;0.93;;;;;;;4.18;100.00;95620.72;1035291;28;20033;-69
2024/04/03 00:39:16;;;;;;;2.72;0.93;;;;;;;4.17;100.00;95616.56;1035011;28;20048;-69
2024/04/03 00:39:52;;;;;;;1.33;0.70;;;;;;;4.11;100.00;95607.06;1032807;28;20108;-69
2024/04/03 00:40:22;;;;;;;0.73;0.60;;;;;;;4.16;100.00;95618.38;1035386;28;20034;-70
2024/04/03 00:41:00;;;;;;;1.95;1.17;;;;;;;4.14;100.00;95620.38;1035311;28;20319;-70
2024/04/03 00:41:30;;;;;;;1.20;0.90;;;;;;;4.14;100.00;95619.59;1028332;28;20030;-70
2024/04/03 00:42:01;;;;;;;4.20;1.00;;;;;;;4.11;100.00;95612.25;1030079;28;20265;-69
2024/04/03 00:42:31;;;;;;;2.47;1.05;;;;;;;4.08;100.00;95612.69;1031170;28;20061;-70
2024/04/03 00:43:13;;;;;;;2.65;1.08;;;;;;;4.07;100.00;95611.13;1028300;28;20416;-69
2024/04/03 00:43:43;;;;;;;1.45;0.77;;;;;;;4.01;100.00;95608.41;1031050;28;20038;-70
2024/04/03 00:44:14;;;;;;;2.45;0.80;;;;;;;4.06;100.00;95614.72;1027072;28;20290;-68
2024/04/03 00:44:47;;;;;;;1.83;1.00;;;;;;;4.05;100.00;95619.13;1028099;28;20166;-69
2024/04/03 00:45:17;;;;;;;3.80;1.00;;;;;;;4.01;100.00;95611.00;1031450;28;20022;-69
2024/04/03 00:45:48;;;;;;;1.92;1.15;;;;;;;4.03;100.00;95615.19;1039299;28;20784;-70
2024/04/03 00:46:19;;;;;;;1.33;0.75;;;;;;;4.04;100.00;95616.75;1031631;28;20069;-69
2024/04/03 00:46:50;;;;;;;2.88;1.05;;;;;;;4.02;100.00;95622.16;1035340;28;20346;-69
2024/04/03 00:47:21;;;;;;;3.28;1.27;;;;;;;4.00;100.00;95617.22;1039108;28;20029;-70
2024/04/03 00:47:51;;;;;;;3.35;0.88;;;;;;;4.00;100.00;95613.84;1035415;28;20539;-69
2024/04/03 00:48:22;;;;;;;1.50;1.10;;;;;;;3.92;100.00;95609.75;1030612;28;20046;-69
2024/04/03 00:48:52;;;;;;;1.50;0.93;;;;;;;3.97;100.00;95615.06;1031273;28;20046;-70
2024/04/03 00:49:23;;;;;;;2.40;1.20;;;;;;;3.92;100.00;95607.16;1022940;29;20034;-69
2024/04/03 00:49:53;;;;;;;2.50;0.93;;;;;;;3.97;100.00;95612.47;1026880;28;20165;-69
2024/04/03 00:50:24;;;;;;;1.00;0.90;;;;;;;3.95;100.00;95614.47;1027211;28;20034;-69
2024/04/03 00:50:55;;;;;;;0.85;0.80;;;;;;;3.95;100.00;95611.88;1027157;28;20030;-70
2024/04/03 00:51:25;;;;;;;2.83;0.90;;;;;;;3.88;100.00;95603.41;1031054;28;20045;-68
2024/04/03 00:51:56;;;;;;;3.70;1.00;;;;;;;3.91;100.00;95612.56;1019092;29;20315;-69
2024/04/03 00:52:26;;;;;;;5.00;1.25;;;;;;;3.88;100.00;95608.59;1025431;28;20507;-68
2024/04/03 00:52:57;;;;;;;2.35;1.50;;;;;;;3.84;100.00;95598.91;1031146;28;20026;-70
2024/04/03 00:53:28;;;;;;;1.85;0.93;;;;;;;3.91;100.00;95615.94;1031060;28;20165;-69
2024/04/03 00:53:58;;;;;;;5.75;1.20;;;;;;;3.74;100.00;95583.88;1030903;28;20038;-69
2024/04/03 00:54:29;;;;;;;1.25;1.00;;;;;;;3.87;100.00;95607.03;1027394;28;20091;-69
2024/04/03 00:54:59;;;;;;;1.70;0.90;;;;;;;3.88;100.00;95613.00;1035150;28;20018;-69
2024/04/03 00:55:30;;;;;;;3.83;0.98;;;;;;;3.83;100.00;95613.69;1039544;28;20569;-69
2024/04/03 00:56:00;;;;;;;1.05;0.75;;;;;;;3.85;100.00;95618.66;1035284;28;20022;-69
2024/04/03 00:56:31;;;;;;;2.50;1.10;;;;;;;3.82;100.00;95612.09;1035031;28;20639;-69
2024/04/03 00:57:01;;;;;;;2.17;1.20;;;;;;;3.81;100.00;95612.31;1026751;28;20050;-69
2024/04/03 00:57:32;;;;;;;2.92;0.93;;;;;;;3.81;100.00;95607.91;1023253;28;20034;-69
2024/04/03 00:58:03;;;;;;;3.40;0.93;;;;;;;3.79;100.00;95620.34;1023103;29;20027;-69
2024/04/03 00:58:34;;;;;;;2.33;1.30;;;;;;;3.77;100.00;95612.75;1023385;28;20106;-69
2024/04/03 00:59:04;;;;;;;2.88;1.13;;;;;;;3.77;100.00;95611.97;1033586;28;20869;-69
2024/04/03 00:59:35;;;;;;;1.40;1.00;;;;;;;3.76;100.00;95620.78;1035274;28;20347;-69
2024/04/03 01:00:06;;;;;;;3.72;0.98;;;;;;;3.73;100.00;95613.44;1035347;28;20553;-69
2024/04/03 01:00:37;;;;;;;2.25;1.13;;;;;;;3.75;100.00;95614.00;1036869;28;20491;-69
2024/04/03 01:01:07;;;;;;;2.50;1.20;;;;;;;3.78;100.00;95619.53;1035167;28;20301;-69
2024/04/03 01:01:38;;;;;;;1.45;1.13;;;;;;;3.78;100.00;95616.94;1027413;28;20034;-69
2024/04/03 01:02:08;;;;;;;2.03;1.08;;;;;;;3.80;100.00;95627.09;1027009;28;20436;-69
2024/04/03 01:02:39;;;;;;;1.25;0.85;;;;;;;3.77;100.00;95615.34;1035492;28;20026;-69
2024/04/03 01:03:09;;;;;;;4.07;1.35;;;;;;;3.75;100.00;95607.00;1031198;28;20535;-69
2024/04/03 01:03:40;;;;;;;1.85;0.90;;;;;;;3.77;100.00;95607.56;1031499;28;20030;-69
2024/04/03 01:04:10;;;;;;;1.48;0.70;;;;;;;3.80;100.00;95602.97;1030888;28;20031;-69
2024/04/03 01:04:41;;;;;;;1.67;1.00;;;;;;;3.79;100.00;95612.56;1031102;28;20046;-70
2024/04/03 01:05:11;;;;;;;2.92;0.80;;;;;;;3.80;100.00;95619.31;1031492;28;20042;-69
2024/04/03 01:05:42;;;;;;;2.92;0.90;;;;;;;3.81;100.00;95613.09;1039191;28;20119;-70
2024/04/03 01:06:12;;;;;;;1.42;0.93;;;;;;;3.81;100.00;95607.13;1035225;28;20112;-69
2024/04/03 01:06:43;;;;;;;1.77;0.88;;;;;;;3.82;100.00;95611.31;1027078;28;20035;-69
2024/04/03 01:07:13;;;;;;;1.60;0.80;;;;;;;3.81;100.00;95613.09;1027051;28;20026;-69
2024/04/03 01:07:44;;;;;;;2.97;1.10;;;;;;;3.82;100.00;95608.72;1027452;28;20038;-70
2024/04/03 01:08:14;;;;;;;1.13;0.85;;;;;;;3.80;100.00;95608.94;1031189;28;20105;-70
2024/04/03 01:08:45;;;;;;;1.15;0.60;;;;;;;3.74;100.00;95602.03;1039223;28;20029;-70
2024/04/03 01:09:15;;;;;;;2.83;0.80;;;;;;;3.79;100.00;95604.78;1030527;28;20023;-71
2024/04/03 01:09:45;;;;;;;4.82;1.20;;;;;;;3.74;100.00;95592.44;1027130;28;20110;-70
2024/04/03 01:10:16;;;;;;;2.35;1.15;;;;;;;3.70;100.00;95591.31;1022888;29;20047;-70
2024/04/03 01:10:46;;;;;;;1.48;0.88;;;;;;;3.75;100.00;95603.63;1027023;28;20524;-70
2024/04/03 01:11:17;;;;;;;3.30;1.17;;;;;;;3.68;100.00;95595.13;1030920;28;20074;-69
2024/04/03 01:11:49;;;;;;;3.35;1.08;;;;;;;3.71;100.00;95599.88;1027366;28;20027;-69
2024/04/03 01:12:20;;;;;;;1.10;0.80;;;;;;;3.63;100.00;95595.03;1022785;29;20103;-70
2024/04/03 01:12:51;;;;;;;2.03;1.05;;;;;;;3.66;100.00;95599.78;1031016;28;20300;-69
2024/04/03 01:13:21;;;;;;;1.17;0.90;;;;;;;3.67;100.00;95604.72;1035332;28;20017;-69
2024/04/03 01:13:52;;;;;;;4.53;1.45;;;;;;;3.62;100.00;95596.84;1035159;28;20072;-69
2024/04/03 01:14:22;;;;;;;2.78;1.17;;;;;;;3.67;100.00;95601.34;1026969;28;20014;-69
2024/04/03 01:14:53;;;;;;;1.20;1.02;;;;;;;3.69;100.00;95591.53;1031127;28;20037;-69
2024/04/03 01:15:23;;;;;;;2.03;1.00;;;;;;;3.69;100.00;95599.31;1027183;28;20018;-69
2024/04/03 01:16:01;;;;;;;2.63;1.08;;;;;;;3.69;100.00;95599.31;1031238;28;20057;-69
2024/04/03 01:16:31;;;;;;;1.35;0.75;;;;;;;3.64;100.00;95589.59;1036125;28;20033;-72
2024/04/03 01:17:02;;;;;;;2.55;1.00;;;;;;;3.70;100.00;95600.91;1032080;28;20798;-70
2024/04/03 01:17:32;;;;;;;2.63;1.05;;;;;;;3.69;100.00;95594.13;1031004;28;20113;-69
2024/04/03 01:18:03;;;;;;;3.97;0.98;;;;;;;3.68;100.00;95592.53;1030992;28;20085;-71
2024/04/03 01:18:34;;;;;;;2.30;1.23;;;;;;;3.65;100.00;95593.00;1031198;28;20028;-69
2024/04/03 01:19:04;;;;;;;1.13;0.80;;;;;;;3.68;100.00;95589.94;1026456;28;20013;-69
2024/04/03 01:19:35;;;;;;;2.10;0.90;;;;;;;3.68;100.00;95592.53;1026917;28;20026;-69
2024/04/03 01:20:06;;;;;;;2.25;1.20;;;;;;;3.64;100.00;95586.22;1027259;28;20057;-69
2024/04/03 01:20:37;;;;;;;1.65;1.08;;;;;;;3.69;100.00;95588.94;1035045;28;20010;-69
2024/04/03 01:21:07;;;;;;;2.53;1.00;;;;;;;3.68;100.00;95590.75;1034701;28;20289;-69
2024/04/03 01:21:38;;;;;;;2.20;1.23;;;;;;;3.59;100.00;95573.13;1031406;28;20536;-70
2024/04/03 01:22:08;;;;;;;2.30;0.90;;;;;;;3.69;100.00;95588.94;1027316;28;20484;-69
2024/04/03 01:22:39;;;;;;;1.63;0.73;;;;;;;3.70;100.00;95585.34;1026830;28;20026;-69
2024/04/03 01:23:09;;;;;;;2.00;1.00;;;;;;;3.69;100.00;95584.56;1027175;28;20070;-69
2024/04/03 01:23:40;;;;;;;1.30;0.95;;;;;;;3.68;100.00;95589.94;1031205;28;20418;-69
2024/04/03 01:24:10;;;;;;;1.58;0.80;;;;;;;3.71;100.00;95586.91;1031213;28;20105;-68
2024/04/03 01:24:41;;;;;;;2.72;1.50;;;;;;;3.70;100.00;95591.31;1034967;28;20097;-69
2024/04/03 01:25:11;;;;;;;4.55;1.23;;;;;;;3.72;100.00;95586.72;1035000;28;20033;-69
2024/04/03 01:25:42;;;;;;;3.10;0.80;;;;;;;3.73;100.00;95582.31;1035276;28;20026;-69
2024/04/03 01:26:12;;;;;;;1.50;1.00;;;;;;;3.72;100.00;95578.09;1034828;28;20502;-69
2024/04/03 01:26:43;;;;;;;3.15;1.10;;;;;;;3.70;100.00;95575.75;1031012;28;20018;-70
2024/04/03 01:27:13;;;;;;;1.08;0.70;;;;;;;3.72;100.00;95580.69;1023211;29;20118;-69
2024/04/03 01:27:43;;;;;;;0.98;0.90;;;;;;;3.74;100.00;95583.88;1022849;28;20031;-69
2024/04/03 01:28:15;;;;;;;2.05;0.80;;;;;;;3.74;100.00;95565.72;1027109;28;20030;-69
2024/04/03 01:28:46;;;;;;;2.05;1.00;;;;;;;3.76;100.00;95574.06;1027314;28;20554;-68
2024/04/03 01:29:16;;;;;;;1.10;0.77;;;;;;;3.76;100.00;95580.06;1030732;28;20383;-69
2024/04/03 01:29:46;;;;;;;1.25;0.70;;;;;;;3.80;100.00;95575.22;1031237;28;20045;-69
2024/04/03 01:30:17;;;;;;;2.90;1.05;;;;;;;3.79;100.00;95578.81;1030809;28;20128;-69
2024/04/03 01:30:48;;;;;;;4.60;1.10;;;;;;;3.82;100.00;95570.56;1031013;28;20131;-69
2024/04/03 01:31:19;;;;;;;1.98;0.70;;;;;;;3.69;100.00;95553.41;1034913;28;20048;-69
2024/04/03 01:31:49;;;;;;;2.25;0.80;;;;;;;3.86;100.00;95571.72;1034929;28;20359;-69
2024/04/03 01:32:20;;;;;;;1.88;0.88;;;;;;;3.87;100.00;95570.69;1031010;28;20088;-69
2024/04/03 01:32:50;;;;;;;1.13;0.80;;;;;;;3.86;100.00;95574.31;1027127;28;20097;-69
2024/04/03 01:33:21;;;;;;;1.02;0.80;;;;;;;3.82;100.00;95567.97;1027042;28;20046;-69
2024/04/03 01:33:51;;;;;;;3.38;0.80;;;;;;;3.83;100.00;95568.78;1030743;28;20030;-69
2024/04/03 01:34:21;;;;;;;3.42;1.00;;;;;;;3.81;100.00;95566.41;1034495;28;20033;-69
2024/04/03 01:34:52;;;;;;;2.53;0.68;;;;;;;3.75;100.00;95559.50;1031139;28;20026;-69
2024/04/03 01:35:22;;;;;;;2.45;0.95;;;;;;;3.80;100.00;95570.00;1027132;28;20026;-68
2024/04/03 01:35:53;;;;;;;2.97;1.08;;;;;;;3.81;100.00;95566.41;1026887;28;20042;-69
2024/04/03 01:36:24;;;;;;;2.08;0.85;;;;;;;3.84;100.00;95559.97;1035858;28;20025;-69
2024/04/03 01:36:54;;;;;;;0.95;0.80;;;;;;;3.83;100.00;95559.19;1035242;28;20138;-69
2024/04/03 01:37:25;;;;;;;3.17;0.75;;;;;;;3.84;100.00;95560.75;1037373;28;20103;-69
2024/04/03 01:37:55;;;;;;;1.83;1.00;;;;;;;3.68;100.00;95538.06;1038981;28;20025;-70
2024/04/03 01:38:25;;;;;;;1.27;0.70;;;;;;;3.88;100.00;95559.28;1031013;28;20034;-69
2024/04/03 01:38:56;;;;;;;1.42;0.90;;;;;;;3.86;100.00;95561.34;1030553;28;20030;-69
2024/04/03 01:39:28;;;;;;;0.52;0.52;;;;;;;3.83;100.00;95561.78;1035168;28;20030;-69
2024/04/03 01:39:59;;;;;;;1.75;0.93;;;;;;;3.81;100.00;95556.00;1031049;28;20037;-69
2024/04/03 01:40:30;;;;;;;3.55;0.82;;;;;;;3.82;100.00;95557.59;1034637;28;20263;-68
2024/04/03 01:41:00;;;;;;;0.98;0.80;;;;;;;3.81;100.00;95558.63;1031011;28;20034;-69
2024/04/03 01:41:30;;;;;;;1.60;0.98;;;;;;;3.80;100.00;95558.84;1037442;28;20493;-69
2024/04/03 01:42:01;;;;;;;3.00;0.95;;;;;;;3.75;100.00;95541.34;1039282;28;20028;-69
2024/04/03 01:42:31;;;;;;;2.88;0.98;;;;;;;3.75;100.00;95541.34;1035078;28;20029;-69
2024/04/03 01:43:02;;;;;;;1.60;0.85;;;;;;;3.81;100.00;95550.03;1039030;28;20030;-69
2024/04/03 01:43:32;;;;;;;3.28;1.00;;;;;;;3.79;100.00;95547.69;1035204;28;20040;-69
2024/04/03 01:44:03;;;;;;;2.47;1.00;;;;;;;3.78;100.00;95543.50;1032414;28;20029;-71
2024/04/03 01:44:33;;;;;;;1.20;0.63;;;;;;;3.79;100.00;95545.09;1035224;28;20518;-69
2024/04/03 01:45:04;;;;;;;1.13;0.80;;;;;;;3.79;100.00;95555.47;1030614;28;20026;-69
2024/04/03 01:45:34;;;;;;;3.53;0.73;;;;;;;3.79;100.00;95555.47;1030953;28;20034;-69
2024/04/03 01:46:05;;;;;;;2.40;1.02;;;;;;;3.78;100.00;95553.88;1031092;28;20034;-69
2024/04/03 01:46:35;;;;;;;2.03;0.85;;;;;;;3.77;100.00;95552.28;1031012;28;20042;-68
2024/04/03 01:47:06;;;;;;;3.33;0.90;;;;;;;3.76;100.00;95551.50;1038972;28;20569;-69
2024/04/03 01:47:41;;;;;;;1.35;0.70;;;;;;;3.71;100.00;95542.81;1039100;28;20034;-68
2024/04/03 01:48:13;;;;;;;1.25;0.90;;;;;;;3.76;100.00;95555.91;1037861;28;20502;-69
2024/04/03 01:48:43;;;;;;;1.27;0.90;;;;;;;3.75;100.00;95554.31;1035035;28;20866;-69
2024/04/03 01:49:14;;;;;;;1.40;0.90;;;;;;;3.75;100.00;95556.91;1034469;28;20299;-69
2024/04/03 01:49:44;;;;;;;3.45;1.00;;;;;;;3.73;100.00;95548.56;1034866;28;20018;-69
2024/04/03 01:50:21;;;;;;;1.50;0.90;;;;;;;3.74;100.00;95550.16;1027439;28;20057;-71
2024/04/03 01:50:52;;;;;;;2.00;1.15;;;;;;;3.70;100.00;95543.81;1026971;28;20019;-69
2024/04/03 01:51:22;;;;;;;0.85;0.82;;;;;;;3.71;100.00;95545.41;1027069;28;20288;-69
2024/04/03 01:51:53;;;;;;;3.80;0.90;;;;;;;3.69;100.00;95547.41;1030816;28;20030;-69
2024/04/03 01:52:24;;;;;;;2.80;0.98;;;;;;;3.75;100.00;95551.72;1033215;28;20480;-69
2024/04/03 01:52:54;;;;;;;3.08;0.90;;;;;;;3.72;100.00;95549.56;1026975;28;20029;-69
2024/04/03 01:53:25;;;;;;;1.92;0.80;;;;;;;3.75;100.00;95557.69;1026851;28;20031;-69
2024/04/03 01:53:55;;;;;;;1.38;0.70;;;;;;;3.77;100.00;95554.88;1027132;28;20034;-69
2024/04/03 01:54:29;;;;;;;1.45;0.88;;;;;;;3.78;100.00;95552.06;1034971;28;20026;-69
2024/04/03 01:54:59;;;;;;;1.88;1.13;;;;;;;3.72;100.00;95544.38;1031150;28;20038;-70
2024/04/03 01:55:29;;;;;;;2.72;1.00;;;;;;;3.71;100.00;95551.38;1023745;28;20814;-69
2024/04/03 01:56:00;;;;;;;1.55;0.82;;;;;;;3.75;100.00;95549.91;1022767;29;20146;-69
2024/04/03 01:56:30;;;;;;;4.25;0.82;;;;;;;3.75;100.00;95551.72;1022720;29;20547;-69
2024/04/03 01:57:01;;;;;;;2.33;0.90;;;;;;;3.73;100.00;95548.56;1024102;28;20027;-69
2024/04/03 01:57:31;;;;;;;2.78;1.00;;;;;;;3.72;100.00;95544.38;1026809;28;20086;-69
2024/04/03 01:58:02;;;;;;;1.77;1.00;;;;;;;3.74;100.00;95553.53;1030768;28;20034;-69
2024/04/03 01:58:32;;;;;;;4.97;1.20;;;;;;;3.74;100.00;95539.75;1031096;28;20153;-70
2024/04/03 01:59:03;;;;;;;1.98;0.90;;;;;;;3.72;100.00;95536.59;1034173;28;20088;-69
2024/04/03 01:59:33;;;;;;;1.90;0.85;;;;;;;3.70;100.00;95538.63;1028454;28;20070;-69
2024/04/03 02:00:05;;;;;;;2.00;0.80;;;;;;;3.76;100.00;95537.75;1030932;28;20492;-69
2024/04/03 02:00:36;;;;;;;2.08;1.20;;;;;;;3.76;100.00;95532.56;1031453;28;20569;-68
2024/04/03 02:01:06;;;;;;;1.08;0.70;;;;;;;3.76;100.00;95533.34;1039118;28;20406;-69
2024/04/03 02:01:38;;;;;;;1.83;1.00;;;;;;;3.77;100.00;95534.91;1039187;28;20467;-69
2024/04/03 02:02:09;;;;;;;2.75;1.42;;;;;;;3.77;100.00;95529.72;1035181;28;20045;-69
2024/04/03 02:02:39;;;;;;;2.17;0.70;;;;;;;3.71;100.00;95522.84;1038855;28;20681;-69
2024/04/03 02:03:10;;;;;;;2.55;0.93;;;;;;;3.77;100.00;95529.72;1026910;28;20034;-69
2024/04/03 02:03:40;;;;;;;2.10;1.00;;;;;;;3.76;100.00;95535.16;1027054;28;20031;-69
2024/04/03 02:04:10;;;;;;;2.13;1.02;;;;;;;3.72;100.00;95524.44;1030801;28;20680;-69
2024/04/03 02:04:41;;;;;;;3.70;1.00;;;;;;;3.78;100.00;95525.31;1026942;28;20467;-69
2024/04/03 02:05:11;;;;;;;1.50;0.90;;;;;;;3.77;100.00;95526.34;1031023;28;20081;-69
2024/04/03 02:05:45;;;;;;;3.05;1.00;;;;;;;3.73;100.00;95520.03;1034777;28;20040;-68
2024/04/03 02:06:16;;;;;;;2.05;0.70;;;;;;;3.74;100.00;95529.38;1027505;28;20404;-69
2024/04/03 02:06:47;;;;;;;3.17;1.33;;;;;;;3.76;100.00;95528.16;1030986;28;20344;-69
2024/04/03 02:07:17;;;;;;;4.15;1.17;;;;;;;3.75;100.00;95523.19;1028824;28;20343;-68
2024/04/03 02:07:49;;;;;;;0.77;0.75;;;;;;;3.71;100.00;95519.44;1027385;28;20035;-69
2024/04/03 02:08:20;;;;;;;2.03;0.90;;;;;;;3.75;100.00;95516.19;1030754;28;20519;-69
2024/04/03 02:08:50;;;;;;;1.63;0.90;;;;;;;3.72;100.00;95523.63;1034901;28;20273;-69
2024/04/03 02:09:21;;;;;;;2.63;0.90;;;;;;;3.76;100.00;95522.19;1028710;28;20038;-69
2024/04/03 02:09:51;;;;;;;0.98;0.77;;;;;;;3.77;100.00;95521.16;1026825;28;20396;-69
2024/04/03 02:10:22;;;;;;;2.28;1.00;;;;;;;3.76;100.00;95511.81;1022811;28;20031;-69
2024/04/03 02:10:52;;;;;;;1.77;1.05;;;;;;;3.78;100.00;95517.53;1024935;28;20035;-69
2024/04/03 02:11:22;;;;;;;4.65;0.80;;;;;;;3.80;100.00;95518.13;1026591;28;20027;-69
2024/04/03 02:11:53;;;;;;;1.95;0.57;;;;;;;3.81;100.00;95524.88;1026934;28;20559;-69
2024/04/03 02:12:23;;;;;;;1.20;0.80;;;;;;;3.78;100.00;95507.16;1030738;28;20045;-69
2024/04/03 02:12:54;;;;;;;1.40;0.93;;;;;;;3.82;100.00;95516.06;1026873;28;20030;-69
2024/04/03 02:13:24;;;;;;;1.23;0.80;;;;;;;3.78;100.00;95509.75;1026941;28;20508;-69
2024/04/03 02:13:55;;;;;;;1.42;0.73;;;;;;;3.84;100.00;95519.25;1026915;28;20046;-69
2024/04/03 02:14:26;;;;;;;3.72;1.25;;;;;;;3.84;100.00;95521.84;1030472;28;20034;-69
2024/04/03 02:14:56;;;;;;;1.90;0.90;;;;;;;3.86;100.00;95511.25;1035070;28;20634;-69
2024/04/03 02:15:27;;;;;;;1.85;0.95;;;;;;;3.82;100.00;95510.88;1035028;28;20022;-69
2024/04/03 02:15:57;;;;;;;1.10;0.90;;;;;;;3.86;100.00;95519.03;1041104;28;20095;-68
2024/04/03 02:16:30;;;;;;;2.60;0.88;;;;;;;3.83;100.00;95515.06;1034813;28;20775;-69
2024/04/03 02:17:00;;;;;;;2.60;0.80;;;;;;;3.88;100.00;95514.38;1030828;28;20651;-69
2024/04/03 02:17:31;;;;;;;1.25;0.80;;;;;;;3.86;100.00;95512.03;1022798;29;20333;-69
2024/04/03 02:18:01;;;;;;;2.20;1.02;;;;;;;3.87;100.00;95513.59;1026692;28;20173;-69
2024/04/03 02:18:32;;;;;;;0.88;0.88;;;;;;;3.85;100.00;95510.44;1030791;28;20038;-69
2024/04/03 02:19:02;;;;;;;1.50;0.93;;;;;;;3.82;100.00;95517.88;1030558;28;20081;-69
2024/04/03 02:19:32;;;;;;;2.50;1.00;;;;;;;3.81;100.00;95517.09;1030663;28;20022;-69
2024/04/03 02:20:03;;;;;;;3.05;1.35;;;;;;;3.78;100.00;95510.53;1035177;28;20465;-69
2024/04/03 02:20:34;;;;;;;1.25;0.90;;;;;;;3.81;100.00;95511.13;1030959;28;20018;-68
2024/04/03 02:21:04;;;;;;;2.17;0.90;;;;;;;3.80;100.00;95515.53;1022805;28;20087;-69
2024/04/03 02:21:35;;;;;;;2.72;0.80;;;;;;;3.79;100.00;95516.53;1022405;29;20114;-69
2024/04/03 02:22:06;;;;;;;3.28;0.73;;;;;;;3.78;100.00;95515.72;1022363;28;20165;-68
2024/04/03 02:22:36;;;;;;;1.73;0.90;;;;;;;3.78;100.00;95514.94;1026589;28;20042;-68
2024/04/03 02:23:07;;;;;;;2.97;1.15;;;;;;;3.78;100.00;95507.16;1035461;28;20029;-69
2024/04/03 02:23:37;;;;;;;4.18;1.10;;;;;;;3.76;100.00;95517.00;1039272;28;20034;-69
2024/04/03 02:24:07;;;;;;;3.63;1.10;;;;;;;3.76;100.00;95509.19;1035456;28;20040;-69
2024/04/03 02:24:38;;;;;;;1.75;0.75;;;;;;;3.74;100.00;95513.81;1034803;28;20025;-69
2024/04/03 02:25:08;;;;;;;2.53;1.20;;;;;;;3.71;100.00;95503.88;1035002;28;20037;-69